createdAt,value
2023-04-05T00:01:30.507Z,101988.41
2023-04-05T00:04:21.089Z,101991.97
2023-04-05T00:07:08.464Z,101991.72
2023-04-05T00:09:55.291Z,101987.38
2023-04-05T00:12:41.975Z,101990.84
2023-04-05T00:15:30.265Z,101985.63
2023-04-05T00:18:23.983Z,101993.34
2023-04-05T00:21:11.384Z,101994.03
2023-04-05T00:23:58.933Z,101991.22
2023-04-05T00:26:45.643Z,101993.81
2023-04-05T00:29:32.802Z,101996.22
2023-04-05T00:32:20.974Z,101989.53
2023-04-05T00:35:07.960Z,101987.03
2023-04-05T00:37:54.656Z,101983.81
2023-04-05T00:40:41.463Z,101987.72
2023-04-05T00:43:28.238Z,101986.94
2023-04-05T00:46:14.958Z,101982.41
2023-04-05T00:49:03.134Z,101980.00
2023-04-05T00:51:49.708Z,101984.88
2023-04-05T00:54:39.243Z,101977.44
2023-04-05T00:57:26.718Z,101988.59
2023-04-05T01:00:15.267Z,101978.09
2023-04-05T01:03:04.633Z,101974.56
2023-04-05T01:05:57.033Z,101970.22
2023-04-05T01:08:53.410Z,101970.50
2023-04-05T01:11:41.458Z,101968.75
2023-04-05T01:14:28.225Z,101961.94
2023-04-05T01:17:16.574Z,101968.16
2023-04-05T01:20:10.823Z,101970.19
2023-04-05T01:23:23.084Z,101966.13
2023-04-05T01:26:34.498Z,101969.03
2023-04-05T01:29:54.205Z,101962.28
2023-04-05T01:32:51.946Z,101956.34
2023-04-05T01:35:45.287Z,101954.59
2023-04-05T01:38:34.640Z,101959.84
2023-04-05T01:41:22.519Z,101960.84
2023-04-05T01:44:08.906Z,101957.31
2023-04-05T01:46:57.171Z,101961.03
2023-04-05T01:49:44.305Z,101952.59
2023-04-05T01:52:31.205Z,101949.78
2023-04-05T01:55:17.903Z,101945.47
2023-04-05T01:58:04.774Z,101937.69
2023-04-05T02:00:55.501Z,101935.03
2023-04-05T02:03:45.147Z,101931.66
2023-04-05T02:06:32.342Z,101915.31
2023-04-05T02:09:21.587Z,101914.50
2023-04-05T02:12:08.338Z,101911.44
2023-04-05T02:14:55.142Z,101917.41
2023-04-05T02:17:45.905Z,101910.25
2023-04-05T02:20:34.748Z,101916.41
2023-04-05T02:23:21.517Z,101911.94
2023-04-05T02:26:08.019Z,101910.97
2023-04-05T02:28:54.672Z,101907.63
2023-04-05T02:31:41.373Z,101906.94
2023-04-05T02:34:28.232Z,101894.44
2023-04-05T02:37:19.663Z,101910.19
2023-04-05T02:40:09.810Z,101910.38
2023-04-05T02:42:57.904Z,101908.53
2023-04-05T02:45:47.005Z,101907.59
2023-04-05T02:48:34.661Z,101911.94
2023-04-05T02:51:23.030Z,101910.03
2023-04-05T02:54:15.396Z,101906.59
2023-04-05T02:57:03.317Z,101908.47
2023-04-05T02:59:59.321Z,101910.28
2023-04-05T03:02:48.161Z,101905.06
2023-04-05T03:05:35.909Z,101908.47
2023-04-05T03:08:28.920Z,101908.59
2023-04-05T03:11:23.372Z,101905.91
2023-04-05T03:14:14.773Z,101904.38
2023-04-05T03:17:05.603Z,101907.75
2023-04-05T03:19:57.863Z,101900.03
2023-04-05T03:22:47.067Z,101900.81
2023-04-05T03:25:33.758Z,101901.72
2023-04-05T03:28:22.033Z,101896.63
2023-04-05T03:31:13.457Z,101895.72
2023-04-05T03:34:00.577Z,101896.56
2023-04-05T03:36:51.739Z,101886.34
2023-04-05T03:39:50.877Z,101888.94
2023-04-05T03:42:38.044Z,101885.63
2023-04-05T03:45:27.173Z,101811.59
2023-04-05T03:48:13.996Z,101889.00
2023-04-05T03:51:01.847Z,101880.34
2023-04-05T03:53:48.478Z,101883.75
2023-04-05T03:56:35.769Z,101890.91
2023-04-05T03:59:30.653Z,101872.56
2023-04-05T04:02:22.190Z,101877.03
2023-04-05T04:05:10.477Z,101880.78
2023-04-05T04:07:57.451Z,101876.84
2023-04-05T04:10:45.816Z,101871.50
2023-04-05T04:13:41.227Z,101875.22
2023-04-05T04:16:37.071Z,101875.19
2023-04-05T04:19:58.941Z,101874.19
2023-04-05T04:23:10.952Z,101884.56
2023-04-05T04:26:28.963Z,101878.59
2023-04-05T04:29:39.153Z,101870.66
2023-04-05T04:32:53.878Z,101873.66
2023-04-05T04:35:55.889Z,101877.28
2023-04-05T04:39:13.945Z,101871.09
2023-04-05T04:42:33.862Z,101872.72
2023-04-05T04:45:48.467Z,101872.78
2023-04-05T04:48:54.304Z,101883.38
2023-04-05T04:51:54.162Z,101878.31
2023-04-05T04:54:43.452Z,101874.25
2023-04-05T04:57:30.262Z,101874.44
2023-04-05T05:00:18.311Z,101873.56
2023-04-05T05:03:06.321Z,101871.00
2023-04-05T05:05:53.950Z,101872.84
2023-04-05T05:08:47.652Z,101876.56
2023-04-05T05:11:35.071Z,101875.81
2023-04-05T05:14:24.477Z,101877.59
2023-04-05T05:17:11.424Z,101890.72
2023-04-05T05:20:00.849Z,101888.94
2023-04-05T05:22:48.546Z,101891.34
2023-04-05T05:25:38.499Z,101877.44
2023-04-05T05:28:26.065Z,101881.78
2023-04-05T05:31:14.306Z,101888.94
2023-04-05T05:34:01.230Z,101885.44
2023-04-05T05:36:48.055Z,101886.56
2023-04-05T05:39:35.029Z,101888.03
2023-04-05T05:42:23.158Z,101884.91
2023-04-05T05:45:11.417Z,101885.19
2023-04-05T05:47:58.082Z,101891.28
2023-04-05T05:50:48.808Z,101887.78
2023-04-05T05:53:35.586Z,101891.16
2023-04-05T05:56:22.272Z,101889.28
2023-04-05T05:59:10.824Z,101890.41
2023-04-05T06:01:57.445Z,101887.00
2023-04-05T06:04:44.374Z,101880.13
2023-04-05T06:07:31.066Z,101874.88
2023-04-05T06:10:17.943Z,101873.69
2023-04-05T06:13:04.677Z,101871.03
2023-04-05T06:15:53.159Z,101867.88
2023-04-05T06:18:39.884Z,101868.88
2023-04-05T06:21:26.802Z,101871.56
2023-04-05T06:24:13.612Z,101866.25
2023-04-05T06:27:01.278Z,101868.22
2023-04-05T06:29:47.672Z,101871.66
2023-04-05T06:32:36.046Z,101891.00
2023-04-05T06:35:23.476Z,101890.09
2023-04-05T06:38:10.563Z,101882.13
2023-04-05T06:40:57.383Z,101885.66
2023-04-05T06:43:44.229Z,101887.44
2023-04-05T06:46:38.678Z,101888.44
2023-04-05T06:49:30.223Z,101892.16
2023-04-05T06:52:23.226Z,101889.53
2023-04-05T06:55:19.242Z,101877.25
2023-04-05T06:58:12.865Z,101879.00
2023-04-05T07:01:10.171Z,101860.59
2023-04-05T07:04:10.143Z,101884.38
2023-04-05T07:07:13.147Z,101881.75
2023-04-05T07:10:08.654Z,101880.75
2023-04-05T07:13:07.899Z,101887.81
2023-04-05T07:16:06.579Z,101881.75
2023-04-05T07:18:54.586Z,101880.69
2023-04-05T07:21:42.667Z,101883.47
2023-04-05T07:24:32.250Z,101880.88
2023-04-05T07:27:21.205Z,101869.47
2023-04-05T07:30:10.338Z,101877.38
2023-04-05T07:32:58.942Z,101865.09
2023-04-05T07:35:47.182Z,101868.59
2023-04-05T07:38:35.353Z,101869.47
2023-04-05T07:41:25.101Z,101870.34
2023-04-05T07:44:12.631Z,101873.88
2023-04-05T07:47:00.502Z,101880.91
2023-04-05T07:49:47.100Z,101885.28
2023-04-05T07:52:35.006Z,101879.13
2023-04-05T07:55:22.581Z,101882.66
2023-04-05T07:58:12.071Z,101877.38
2023-04-05T08:01:01.719Z,101874.75
2023-04-05T08:03:48.435Z,101872.13
2023-04-05T08:06:35.134Z,101876.50
2023-04-05T08:09:22.038Z,101881.78
2023-04-05T08:12:11.501Z,101884.41
2023-04-05T08:14:59.612Z,101844.91
2023-04-05T08:17:46.135Z,101891.44
2023-04-05T08:20:33.000Z,101876.50
2023-04-05T08:23:19.604Z,101876.50
2023-04-05T08:26:07.946Z,101879.16
2023-04-05T08:28:54.531Z,101879.16
2023-04-05T08:31:42.666Z,101888.81
2023-04-05T08:34:29.206Z,101887.03
2023-04-05T08:37:15.934Z,101890.56
2023-04-05T08:40:02.886Z,101887.03
2023-04-05T08:42:58.573Z,101887.91
2023-04-05T08:45:51.007Z,101876.50
2023-04-05T08:48:41.522Z,101878.22
2023-04-05T08:51:28.902Z,101883.38
2023-04-05T08:54:15.610Z,101872.72
2023-04-05T08:57:06.030Z,101885.00
2023-04-05T08:59:53.596Z,101894.38
2023-04-05T09:02:41.780Z,101882.13
2023-04-05T09:05:31.390Z,101883.03
2023-04-05T09:08:18.490Z,101881.00
2023-04-05T09:11:05.326Z,101884.50
2023-04-05T09:13:52.136Z,101880.88
2023-04-05T09:16:40.725Z,101873.59
2023-04-05T09:19:27.689Z,101874.66
2023-04-05T09:22:18.562Z,101879.28
2023-04-05T09:25:05.263Z,101879.38
2023-04-05T09:27:56.906Z,101880.50
2023-04-05T09:30:47.677Z,101883.28
2023-04-05T09:33:35.709Z,101885.81
2023-04-05T09:36:22.741Z,101878.88
2023-04-05T09:39:11.396Z,101874.44
2023-04-05T09:42:09.441Z,101888.34
2023-04-05T09:45:01.622Z,101891.75
2023-04-05T09:47:58.620Z,101895.16
2023-04-05T09:50:45.581Z,101888.97
2023-04-05T09:53:32.337Z,101893.53
2023-04-05T09:56:20.785Z,101886.28
2023-04-05T09:59:10.613Z,101879.03
2023-04-05T10:01:57.649Z,101877.94
2023-04-05T10:04:46.694Z,101869.97
2023-04-05T10:07:33.989Z,101883.19
2023-04-05T10:10:23.417Z,101877.88
2023-04-05T10:13:11.460Z,101875.44
2023-04-05T10:16:01.741Z,101870.75
2023-04-05T10:18:52.849Z,101875.19
2023-04-05T10:21:43.020Z,101880.78
2023-04-05T10:24:36.847Z,101870.25
2023-04-05T10:27:31.750Z,101865.91
2023-04-05T10:30:20.041Z,101873.94
2023-04-05T10:33:13.498Z,101864.19
2023-04-05T10:36:08.603Z,101868.44
2023-04-05T10:39:04.207Z,101872.75
2023-04-05T10:41:57.977Z,101861.81
2023-04-05T10:44:47.143Z,101862.06
2023-04-05T10:47:43.755Z,101859.25
2023-04-05T10:50:31.066Z,101858.25
2023-04-05T10:53:18.487Z,101859.22
2023-04-05T10:56:06.872Z,101851.06
2023-04-05T10:58:55.078Z,101863.47
2023-04-05T11:01:43.283Z,101853.78
2023-04-05T11:04:34.742Z,101851.13
2023-04-05T11:07:21.780Z,101851.03
2023-04-05T11:10:17.775Z,101839.50
2023-04-05T11:13:08.896Z,101839.72
2023-04-05T11:16:09.831Z,101840.69
2023-04-05T11:18:56.258Z,101837.06
2023-04-05T11:21:44.576Z,101825.28
2023-04-05T11:24:51.403Z,101828.63
2023-04-05T11:27:38.099Z,101836.84
2023-04-05T11:30:47.735Z,101827.13
2023-04-05T11:33:57.426Z,101838.94
2023-04-05T11:36:50.477Z,101834.84
2023-04-05T11:39:39.221Z,101832.31
2023-04-05T11:42:25.842Z,101834.00
2023-04-05T11:45:12.677Z,101845.47
2023-04-05T11:48:01.035Z,101847.56
2023-04-05T11:50:49.077Z,101845.69
2023-04-05T11:53:38.124Z,101844.81
2023-04-05T11:56:24.703Z,101840.13
2023-04-05T11:59:15.120Z,101836.16
2023-04-05T12:02:04.043Z,101836.91
2023-04-05T12:04:56.251Z,101829.84
2023-04-05T12:07:43.059Z,101830.53
2023-04-05T12:10:31.569Z,101830.34
2023-04-05T12:13:26.697Z,101826.59
2023-04-05T12:16:13.288Z,101831.72
2023-04-05T12:19:01.470Z,101820.16
2023-04-05T12:21:48.637Z,101820.66
2023-04-05T12:24:35.727Z,101812.44
2023-04-05T12:27:24.035Z,101812.41
2023-04-05T12:30:16.224Z,101813.22
2023-04-05T12:33:08.946Z,101797.34
2023-04-05T12:35:56.023Z,101794.19
2023-04-05T12:38:42.507Z,101798.44
2023-04-05T12:41:29.886Z,101791.34
2023-04-05T12:44:19.147Z,101783.00
2023-04-05T12:47:11.498Z,101745.09
2023-04-05T12:49:58.093Z,101784.81
2023-04-05T12:52:55.435Z,101773.31
2023-04-05T12:55:45.979Z,101778.53
2023-04-05T12:58:37.453Z,101776.78
2023-04-05T13:01:25.194Z,101775.53
2023-04-05T13:04:16.419Z,101772.66
2023-04-05T13:07:03.596Z,101765.56
2023-04-05T13:09:50.512Z,101763.44
2023-04-05T13:12:37.184Z,101767.44
2023-04-05T13:15:24.081Z,101765.03
2023-04-05T13:18:14.838Z,101764.06
2023-04-05T13:21:07.628Z,101759.69
2023-04-05T13:23:54.608Z,101748.88
2023-04-05T13:26:41.348Z,101745.34
2023-04-05T13:29:28.227Z,101740.97
2023-04-05T13:32:16.060Z,101730.50
2023-04-05T13:35:06.082Z,101731.47
2023-04-05T13:37:53.997Z,101728.06
2023-04-05T13:40:43.212Z,101723.88
2023-04-05T13:43:31.570Z,101725.38
2023-04-05T13:46:19.470Z,101725.09
2023-04-05T13:49:06.885Z,101720.91
2023-04-05T13:51:55.853Z,101712.84
2023-04-05T13:54:43.233Z,101716.34
2023-04-05T13:57:30.794Z,101712.78
2023-04-05T14:00:18.033Z,101705.19
2023-04-05T14:03:05.118Z,101703.88
2023-04-05T14:05:53.870Z,101701.28
2023-04-05T14:08:43.032Z,101699.78
2023-04-05T14:11:29.759Z,101695.34
2023-04-05T14:14:16.693Z,101688.78
2023-04-05T14:17:03.163Z,101682.09
2023-04-05T14:19:49.895Z,101691.63
2023-04-05T14:22:36.625Z,101681.56
2023-04-05T14:25:24.813Z,101683.78
2023-04-05T14:28:11.383Z,101680.31
2023-04-05T14:30:59.010Z,101680.91
2023-04-05T14:33:46.192Z,101681.31
2023-04-05T14:36:32.962Z,101638.72
2023-04-05T14:39:19.724Z,101672.03
2023-04-05T14:42:07.775Z,101678.47
2023-04-05T14:44:54.371Z,101680.00
2023-04-05T14:47:40.958Z,101673.53
2023-04-05T14:50:27.806Z,101664.91
2023-04-05T14:53:14.679Z,101667.13
2023-04-05T14:56:01.364Z,101657.16
2023-04-05T14:58:49.491Z,101661.78
2023-04-05T15:01:37.344Z,101651.00
2023-04-05T15:04:24.380Z,101663.94
2023-04-05T15:07:11.120Z,101657.53
2023-04-05T15:09:57.823Z,101660.25
2023-04-05T15:12:44.729Z,101651.75
2023-04-05T15:15:32.871Z,101655.00
2023-04-05T15:18:19.705Z,101653.28
2023-04-05T15:21:07.494Z,101656.06
2023-04-05T15:23:54.040Z,101651.78
2023-04-05T15:26:40.977Z,101650.78
2023-04-05T15:29:27.528Z,101647.28
2023-04-05T15:32:15.740Z,101648.53
2023-04-05T15:35:02.732Z,101645.16
2023-04-05T15:37:49.235Z,101639.03
2023-04-05T15:40:36.298Z,101637.22
2023-04-05T15:43:24.342Z,101640.75
2023-04-05T15:46:11.438Z,101644.19
2023-04-05T15:48:59.726Z,101634.41
2023-04-05T15:51:46.680Z,101639.13
2023-04-05T15:54:33.385Z,101639.00
2023-04-05T15:57:20.680Z,101630.97
2023-04-05T16:00:09.144Z,101636.06
2023-04-05T16:03:00.515Z,101631.88
2023-04-05T16:05:48.753Z,101628.25
2023-04-05T16:08:35.658Z,101626.31
2023-04-05T16:11:22.375Z,101627.06
2023-04-05T16:14:10.336Z,101625.63
2023-04-05T16:16:58.143Z,101629.06
2023-04-05T16:19:44.916Z,101627.28
2023-04-05T16:22:33.052Z,101631.13
2023-04-05T16:25:20.010Z,101633.94
2023-04-05T16:28:06.825Z,101629.38
2023-04-05T16:30:53.613Z,101636.38
2023-04-05T16:33:40.434Z,101638.28
2023-04-05T16:36:27.684Z,101632.16
2023-04-05T16:39:16.152Z,101632.34
2023-04-05T16:42:02.894Z,101625.66
2023-04-05T16:44:49.519Z,101626.47
2023-04-05T16:47:36.358Z,101625.66
2023-04-05T16:50:23.263Z,101625.69
2023-04-05T16:53:11.521Z,101623.06
2023-04-05T16:55:59.469Z,101637.34
2023-04-05T16:58:46.384Z,101629.56
2023-04-05T17:01:33.450Z,101631.31
2023-04-05T17:04:20.189Z,101628.78
2023-04-05T17:07:06.921Z,101633.28
2023-04-05T17:09:53.735Z,101631.59
2023-04-05T17:12:42.331Z,101637.06
2023-04-05T17:15:29.285Z,101631.88
2023-04-05T17:18:16.366Z,101634.56
2023-04-05T17:21:02.744Z,101561.19
2023-04-05T17:23:49.655Z,101636.44
2023-04-05T17:26:36.569Z,101645.94
2023-04-05T17:29:24.500Z,101636.19
2023-04-05T17:32:11.437Z,101644.31
2023-04-05T17:34:58.322Z,101644.31
2023-04-05T17:37:45.169Z,101638.84
2023-04-05T17:40:32.196Z,101643.38
2023-04-05T17:43:18.912Z,101653.19
2023-04-05T17:46:06.994Z,101654.03
2023-04-05T17:48:54.830Z,101649.66
2023-04-05T17:51:41.756Z,101650.47
2023-04-05T17:54:28.524Z,101652.25
2023-04-05T17:57:16.107Z,101657.50
2023-04-05T18:00:02.713Z,101656.66
2023-04-05T18:02:53.095Z,101657.84
2023-04-05T18:05:40.020Z,101585.19
2023-04-05T18:08:26.999Z,101663.13
2023-04-05T18:11:13.589Z,101664.13
2023-04-05T18:14:00.453Z,101669.38
2023-04-05T18:16:47.459Z,101665.00
2023-04-05T18:19:35.741Z,101676.63
2023-04-05T18:22:22.446Z,101674.88
2023-04-05T18:25:11.938Z,101673.13
2023-04-05T18:28:00.096Z,101673.94
2023-04-05T18:30:50.281Z,101672.16
2023-04-05T18:33:37.844Z,101674.84
2023-04-05T18:36:52.496Z,101673.28
2023-04-05T18:39:41.753Z,101673.41
2023-04-05T18:42:34.357Z,101681.28
2023-04-05T18:45:29.342Z,101677.78
2023-04-05T18:48:27.011Z,101687.63
2023-04-05T18:51:22.045Z,101681.56
2023-04-05T18:54:14.112Z,101689.53
2023-04-05T18:57:02.562Z,101685.16
2023-04-05T18:59:52.503Z,101690.38
2023-04-05T19:02:41.839Z,101696.72
2023-04-05T19:05:30.041Z,101681.88
2023-04-05T19:08:18.203Z,101700.31
2023-04-05T19:11:12.501Z,101679.34
2023-04-05T19:14:05.067Z,101710.06
2023-04-05T19:16:52.878Z,101704.69
2023-04-05T19:19:40.384Z,101706.56
2023-04-05T19:22:28.959Z,101709.31
2023-04-05T19:25:19.145Z,101712.84
2023-04-05T19:28:07.972Z,101713.75
2023-04-05T19:30:55.262Z,101715.50
2023-04-05T19:33:46.137Z,101712.06
2023-04-05T19:36:39.246Z,101677.81
2023-04-05T19:39:28.725Z,101708.38
2023-04-05T19:42:22.926Z,101710.16
2023-04-05T19:45:17.855Z,101712.84
2023-04-05T19:48:29.853Z,101710.31
2023-04-05T19:51:20.779Z,101711.22
2023-04-05T19:54:11.993Z,101710.38
2023-04-05T19:57:05.873Z,101701.59
2023-04-05T19:59:53.112Z,101700.75
2023-04-05T20:02:41.299Z,101705.22
2023-04-05T20:05:58.425Z,101699.06
2023-04-05T20:08:46.548Z,101702.56
2023-04-05T20:11:34.842Z,101700.81
2023-04-05T20:14:28.119Z,101698.19
2023-04-05T20:17:16.743Z,101694.69
2023-04-05T20:20:09.484Z,101694.72
2023-04-05T20:22:57.052Z,101692.97
2023-04-05T20:25:47.031Z,101696.50
2023-04-05T20:28:38.270Z,101681.56
2023-04-05T20:31:26.713Z,101677.25
2023-04-05T20:34:14.902Z,101678.13
2023-04-05T20:37:14.776Z,101675.50
2023-04-05T20:40:14.865Z,101676.38
2023-04-05T20:43:03.507Z,101680.78
2023-04-05T20:45:53.259Z,101674.66
2023-04-05T20:48:40.109Z,101666.75
2023-04-05T20:51:27.052Z,101670.25
2023-04-05T20:54:15.329Z,101674.63
2023-04-05T20:57:07.892Z,101667.63
2023-04-05T21:00:02.251Z,101671.13
2023-04-05T21:02:49.331Z,101660.63
2023-04-05T21:05:36.220Z,101667.63
2023-04-05T21:08:22.760Z,101668.50
2023-04-05T21:11:28.035Z,101667.63
2023-04-05T21:14:16.300Z,101671.09
2023-04-05T21:17:04.219Z,101676.31
2023-04-05T21:19:51.829Z,101673.69
2023-04-05T21:22:44.123Z,101672.84
2023-04-05T21:25:31.336Z,101668.50
2023-04-05T21:28:19.144Z,101677.28
2023-04-05T21:31:10.214Z,101677.28
2023-04-05T21:33:57.331Z,101663.25
2023-04-05T21:36:44.041Z,101672.03
2023-04-05T21:39:31.174Z,101671.16
2023-04-05T21:42:18.284Z,101664.13
2023-04-05T21:45:08.085Z,101671.16
2023-04-05T21:47:55.017Z,101662.38
2023-04-05T21:50:41.566Z,101663.25
2023-04-05T21:53:31.519Z,101663.25
2023-04-05T21:56:19.167Z,101662.38
2023-04-05T21:59:06.182Z,101655.34
2023-04-05T22:01:54.589Z,101658.88
2023-04-05T22:04:41.065Z,101656.22
2023-04-05T22:07:29.028Z,101656.22
2023-04-05T22:10:15.411Z,101651.84
2023-04-05T22:13:02.249Z,101659.75
2023-04-05T22:15:48.890Z,101660.63
2023-04-05T22:18:37.117Z,101665.00
2023-04-05T22:21:23.973Z,101658.00
2023-04-05T22:24:11.446Z,101658.88
2023-04-05T22:26:57.986Z,101662.38
2023-04-05T22:29:44.798Z,101654.47
2023-04-05T22:32:31.666Z,101651.84
2023-04-05T22:35:20.058Z,101654.47
2023-04-05T22:38:06.845Z,101654.50
2023-04-05T22:40:53.650Z,101650.97
2023-04-05T22:43:40.311Z,101654.50
2023-04-05T22:46:27.134Z,101661.50
2023-04-05T22:49:13.886Z,101658.88
2023-04-05T22:52:02.562Z,101660.63
2023-04-05T22:54:49.248Z,101658.88
2023-04-05T22:57:36.186Z,101662.38
2023-04-05T23:00:23.256Z,101658.88
2023-04-05T23:03:09.687Z,101656.25
2023-04-05T23:05:56.418Z,101650.09
2023-04-05T23:08:44.508Z,101653.59
2023-04-05T23:11:31.327Z,101646.59
2023-04-05T23:14:18.229Z,101646.59
2023-04-05T23:17:05.569Z,101648.34
2023-04-05T23:19:51.997Z,101654.50
2023-04-05T23:22:38.768Z,101646.59
2023-04-05T23:25:27.104Z,101650.09
2023-04-05T23:28:13.609Z,101645.72
2023-04-05T23:31:00.433Z,101655.38
2023-04-05T23:33:47.252Z,101656.25
2023-04-05T23:36:34.016Z,101656.25
2023-04-05T23:39:20.713Z,101651.84
2023-04-05T23:42:09.082Z,101643.97
2023-04-05T23:44:55.720Z,101650.97
2023-04-05T23:47:42.414Z,101652.72
2023-04-05T23:50:29.246Z,101646.59
2023-04-05T23:53:15.881Z,101650.09
2023-04-05T23:56:02.616Z,101643.09
2023-04-05T23:58:51.036Z,101642.19
